Columbus, NM (88029)

12:12 PM MST on February 11, 2016 (GMT -0700)
Deming NM | | Change Station
CLOSE
Current Station
Personal Weather Station
Location: Deming, NM
Elevation: 4255 ft
Nearby Weather Stations

Elev 4255 ft 32.12 °N, 107.77 °W | Updated 4 seconds ago

Clear
Clear
69.0 °F
Feels Like 69.0 °F
N
0.0
Wind Variable Wind from NE
Gusts 0.0 mph

Today
High -- | Low -- °F
--% Chance of Precip.
Yesterday
High -- | Low -- °F
Precip. -- in
Pressure 30.18 in
Visibility 10.0 miles
Clouds Clear
Dew Point 24 °F
Humidity 18%
Rainfall 0.00 in
Snow Depth Not available.
6:56 AM 5:53 PM
Waxing Crescent, 14% visible
METAR KDMN 111853Z AUTO 08005KT 10SM CLR 20/M08 A3028 RMK AO2 SLP220 T02001083 TSNO
Pressure 30.18 in
Visibility 10.0 miles
Clouds Clear
Dew Point 24 °F
Humidity 18%
Rainfall 0.00 in
Snow Depth Not available.
6:56 AM 5:53 PM
Waxing Crescent, 14% visible
METAR KDMN 111853Z AUTO 08005KT 10SM CLR 20/M08 A3028 RMK AO2 SLP220 T02001083 TSNO

10-Day Weather Forecast

Almanac

Astronomy

Feb. 11, 2016 Rise Set
Actual Time
Civil Twilight
Nautical Twilight
Astronomical Twilight
Moon
Length of Visible Light
Length of Day
Tomorrow will be .
, % of the Moon is Illuminated

Today's Extremes

State Highs State Lows

Community

WunderPhotos

Upload Photos

1,892,141 photos uploaded!

WunderBlog® & News

Nearby

Air Quality

  Air Quality AQ Index Pollutant
Not available.

Snow Depth

Station Depth Elevation

Earthquake Activity

City Distance Mag. Time & Date
Minimum magnitude displayed is 2.5.

Coastal Water Temperatures

Place Temperature

Stations

Nearby Weather Stations

Station Location Temp. Windchill Dew Point Humidity Wind Precip. Elev Updated Type
                   

Watches & Warnings

There are currently no watches in effect.